sensor_id;sensor_type;location;lat;lon;timestamp;pressure;altitude;pressure_sealevel;temperature;humidity
28267;BME280;15525;45.568;5.448;2023-02-19T00:01:38;99217.63;;;10.03;53.04
28267;BME280;15525;45.568;5.448;2023-02-19T00:04:11;99221.69;;;9.94;53.57
28267;BME280;15525;45.568;5.448;2023-02-19T00:06:38;99218.94;;;9.89;53.39
28267;BME280;15525;45.568;5.448;2023-02-19T00:09:04;99214.75;;;9.93;52.87
28267;BME280;15525;45.568;5.448;2023-02-19T00:11:32;99213.59;;;9.77;53.34
28267;BME280;15525;45.568;5.448;2023-02-19T00:13:59;99213.69;;;9.82;53.99
28267;BME280;15525;45.568;5.448;2023-02-19T00:16:28;99213.00;;;9.87;54.07
28267;BME280;15525;45.568;5.448;2023-02-19T00:18:55;99200.84;;;9.68;54.23
28267;BME280;15525;45.568;5.448;2023-02-19T00:21:21;99215.25;;;9.44;54.54
28267;BME280;15525;45.568;5.448;2023-02-19T00:23:52;99182.28;;;9.27;54.86
28267;BME280;15525;45.568;5.448;2023-02-19T00:26:18;99218.41;;;9.64;54.55
28267;BME280;15525;45.568;5.448;2023-02-19T00:28:44;99200.59;;;9.69;53.69
28267;BME280;15525;45.568;5.448;2023-02-19T00:31:24;99218.03;;;9.83;53.90
28267;BME280;15525;45.568;5.448;2023-02-19T00:33:51;99199.44;;;9.77;53.35
28267;BME280;15525;45.568;5.448;2023-02-19T00:36:17;99214.53;;;9.83;53.57
28267;BME280;15525;45.568;5.448;2023-02-19T00:38:44;99184.22;;;9.54;53.57
28267;BME280;15525;45.568;5.448;2023-02-19T00:41:11;99213.25;;;9.74;53.49
28267;BME280;15525;45.568;5.448;2023-02-19T00:46:11;99211.16;;;9.64;54.12
28267;BME280;15525;45.568;5.448;2023-02-19T00:48:36;99189.34;;;9.56;53.63
28267;BME280;15525;45.568;5.448;2023-02-19T00:51:02;99183.16;;;9.67;53.47
28267;BME280;15525;45.568;5.448;2023-02-19T00:53:27;99137.44;;;9.29;53.32
28267;BME280;15525;45.568;5.448;2023-02-19T00:55:52;99187.13;;;9.53;53.52
28267;BME280;15525;45.568;5.448;2023-02-19T00:58:18;99144.50;;;9.35;53.00
28267;BME280;15525;45.568;5.448;2023-02-19T01:00:43;99201.28;;;9.76;53.17
28267;BME280;15525;45.568;5.448;2023-02-19T01:03:08;99181.75;;;9.64;53.20
28267;BME280;15525;45.568;5.448;2023-02-19T01:05:34;99173.31;;;9.56;53.26
28267;BME280;15525;45.568;5.448;2023-02-19T01:07:59;99187.13;;;9.41;53.88
28267;BME280;15525;45.568;5.448;2023-02-19T01:10:25;99205.94;;;9.58;54.24
28267;BME280;15525;45.568;5.448;2023-02-19T01:12:50;99172.38;;;9.50;54.19
28267;BME280;15525;45.568;5.448;2023-02-19T01:15:15;99158.13;;;9.45;53.70
28267;BME280;15525;45.568;5.448;2023-02-19T01:17:41;99188.91;;;9.47;54.38
28267;BME280;15525;45.568;5.448;2023-02-19T01:20:07;99194.13;;;9.54;54.37
28267;BME280;15525;45.568;5.448;2023-02-19T01:22:32;99195.41;;;9.63;54.13
28267;BME280;15525;45.568;5.448;2023-02-19T01:24:57;99180.22;;;9.80;53.56
28267;BME280;15525;45.568;5.448;2023-02-19T01:27:23;99195.66;;;10.01;53.48
28267;BME280;15525;45.568;5.448;2023-02-19T01:29:48;99162.88;;;9.94;53.52
28267;BME280;15525;45.568;5.448;2023-02-19T01:32:14;99160.28;;;9.99;53.51
28267;BME280;15525;45.568;5.448;2023-02-19T01:34:39;99150.63;;;9.70;53.16
28267;BME280;15525;45.568;5.448;2023-02-19T01:37:05;99184.63;;;9.97;54.27
28267;BME280;15525;45.568;5.448;2023-02-19T01:39:32;99183.25;;;9.95;53.62
28267;BME280;15525;45.568;5.448;2023-02-19T01:41:57;99184.84;;;10.07;53.50
28267;BME280;15525;45.568;5.448;2023-02-19T01:46:48;99181.53;;;10.17;53.88
28267;BME280;15525;45.568;5.448;2023-02-19T01:49:24;99168.75;;;10.19;54.66
28267;BME280;15525;45.568;5.448;2023-02-19T01:54:25;99160.34;;;10.27;53.40
28267;BME280;15525;45.568;5.448;2023-02-19T01:56:53;99167.19;;;10.34;53.73
28267;BME280;15525;45.568;5.448;2023-02-19T01:59:20;99173.28;;;10.46;53.84
28267;BME280;15525;45.568;5.448;2023-02-19T02:01:46;99171.97;;;10.49;53.61
28267;BME280;15525;45.568;5.448;2023-02-19T02:04:12;99168.38;;;10.71;53.43
28267;BME280;15525;45.568;5.448;2023-02-19T02:06:52;99177.22;;;10.72;53.40
28267;BME280;15525;45.568;5.448;2023-02-19T02:09:19;99168.44;;;10.60;53.67
28267;BME280;15525;45.568;5.448;2023-02-19T02:12:04;99156.13;;;10.59;53.65
28267;BME280;15525;45.568;5.448;2023-02-19T02:14:33;99156.44;;;10.46;54.04
28267;BME280;15525;45.568;5.448;2023-02-19T02:31:03;99152.50;;;10.37;55.09
28267;BME280;15525;45.568;5.448;2023-02-19T02:33:35;99152.16;;;10.33;55.54
28267;BME280;15525;45.568;5.448;2023-02-19T02:38:37;99127.03;;;10.34;55.77
28267;BME280;15525;45.568;5.448;2023-02-19T02:41:05;99130.94;;;10.43;55.20
28267;BME280;15525;45.568;5.448;2023-02-19T02:43:31;99105.81;;;10.44;55.38
28267;BME280;15525;45.568;5.448;2023-02-19T02:45:57;99124.88;;;10.48;55.44
28267;BME280;15525;45.568;5.448;2023-02-19T02:50:55;99133.97;;;10.80;55.21
28267;BME280;15525;45.568;5.448;2023-02-19T02:53:30;99132.75;;;10.87;55.46
28267;BME280;15525;45.568;5.448;2023-02-19T02:56:16;99122.09;;;10.92;54.61
28267;BME280;15525;45.568;5.448;2023-02-19T02:58:43;99135.66;;;10.86;55.63
28267;BME280;15525;45.568;5.448;2023-02-19T03:01:16;99122.13;;;10.76;56.07
28267;BME280;15525;45.568;5.448;2023-02-19T03:04:04;99126.75;;;10.97;55.53
28267;BME280;15525;45.568;5.448;2023-02-19T03:06:34;99117.59;;;10.76;55.99
28267;BME280;15525;45.568;5.448;2023-02-19T03:09:23;99111.56;;;10.69;56.74
28267;BME280;15525;45.568;5.448;2023-02-19T03:11:56;99103.88;;;10.73;55.60
28267;BME280;15525;45.568;5.448;2023-02-19T03:14:46;99104.59;;;10.85;55.97
28267;BME280;15525;45.568;5.448;2023-02-19T03:17:47;99074.44;;;10.73;56.16
28267;BME280;15525;45.568;5.448;2023-02-19T03:20:34;99111.47;;;10.97;55.58
28267;BME280;15525;45.568;5.448;2023-02-19T03:23:01;99099.66;;;10.93;54.98
28267;BME280;15525;45.568;5.448;2023-02-19T03:25:30;99087.63;;;10.96;55.14
28267;BME280;15525;45.568;5.448;2023-02-19T03:28:17;99099.00;;;10.86;55.68
28267;BME280;15525;45.568;5.448;2023-02-19T03:30:48;99091.53;;;10.72;55.66
28267;BME280;15525;45.568;5.448;2023-02-19T03:33:25;99075.63;;;10.65;56.54
28267;BME280;15525;45.568;5.448;2023-02-19T03:36:00;99070.47;;;10.59;56.17
28267;BME280;15525;45.568;5.448;2023-02-19T03:41:05;99080.66;;;10.62;55.59
28267;BME280;15525;45.568;5.448;2023-02-19T03:44:12;99082.69;;;10.55;55.98
28267;BME280;15525;45.568;5.448;2023-02-19T03:46:49;99112.88;;;10.67;55.74
28267;BME280;15525;45.568;5.448;2023-02-19T03:49:23;99120.25;;;10.60;55.60
28267;BME280;15525;45.568;5.448;2023-02-19T03:52:03;99080.25;;;10.37;55.49
28267;BME280;15525;45.568;5.448;2023-02-19T03:54:38;99092.50;;;10.33;55.60
28267;BME280;15525;45.568;5.448;2023-02-19T04:00:18;99102.88;;;10.29;56.13
28267;BME280;15525;45.568;5.448;2023-02-19T04:02:48;99104.72;;;10.29;56.04
28267;BME280;15525;45.568;5.448;2023-02-19T04:05:20;99087.53;;;9.97;56.64
28267;BME280;15525;45.568;5.448;2023-02-19T04:07:49;99079.88;;;9.89;56.05
28267;BME280;15525;45.568;5.448;2023-02-19T04:10:17;99111.13;;;10.00;56.43
28267;BME280;15525;45.568;5.448;2023-02-19T04:12:47;99046.81;;;9.67;55.89
28267;BME280;15525;45.568;5.448;2023-02-19T04:15:17;99091.84;;;9.86;55.55
28267;BME280;15525;45.568;5.448;2023-02-19T04:17:58;99102.03;;;10.01;55.81
28267;BME280;15525;45.568;5.448;2023-02-19T04:20:26;99090.16;;;9.80;55.78
28267;BME280;15525;45.568;5.448;2023-02-19T04:22:54;99098.97;;;9.81;55.54
28267;BME280;15525;45.568;5.448;2023-02-19T04:25:22;99078.97;;;9.44;56.19
28267;BME280;15525;45.568;5.448;2023-02-19T04:27:50;99072.72;;;9.38;56.11
28267;BME280;15525;45.568;5.448;2023-02-19T04:30:15;99125.31;;;9.61;56.59
28267;BME280;15525;45.568;5.448;2023-02-19T04:32:41;99108.59;;;9.54;56.04
28267;BME280;15525;45.568;5.448;2023-02-19T04:35:06;99117.41;;;9.54;55.81
28267;BME280;15525;45.568;5.448;2023-02-19T04:37:32;99133.66;;;9.64;55.64
28267;BME280;15525;45.568;5.448;2023-02-19T04:39:57;99142.81;;;9.68;56.00
28267;BME280;15525;45.568;5.448;2023-02-19T04:42:23;99134.03;;;9.56;55.79
28267;BME280;15525;45.568;5.448;2023-02-19T04:44:48;99131.50;;;9.50;55.55
28267;BME280;15525;45.568;5.448;2023-02-19T04:47:14;99079.75;;;9.05;56.02
28267;BME280;15525;45.568;5.448;2023-02-19T04:49:42;99143.94;;;9.33;55.97
28267;BME280;15525;45.568;5.448;2023-02-19T04:52:08;99146.28;;;9.29;56.06
28267;BME280;15525;45.568;5.448;2023-02-19T04:54:33;99111.19;;;9.14;56.09
28267;BME280;15525;45.568;5.448;2023-02-19T04:56:58;99130.81;;;9.31;55.84
28267;BME280;15525;45.568;5.448;2023-02-19T04:59:24;99139.41;;;9.33;55.61
28267;BME280;15525;45.568;5.448;2023-02-19T05:01:49;99158.56;;;9.30;55.74
28267;BME280;15525;45.568;5.448;2023-02-19T05:04:15;99115.41;;;8.99;55.76
28267;BME280;15525;45.568;5.448;2023-02-19T05:06:40;99148.00;;;9.01;56.27
28267;BME280;15525;45.568;5.448;2023-02-19T05:09:05;99154.75;;;9.03;55.64
28267;BME280;15525;45.568;5.448;2023-02-19T05:11:31;99139.88;;;8.84;56.30
28267;BME280;15525;45.568;5.448;2023-02-19T05:13:56;99142.09;;;8.99;55.95
28267;BME280;15525;45.568;5.448;2023-02-19T05:16:22;99131.66;;;9.09;55.54
28267;BME280;15525;45.568;5.448;2023-02-19T05:18:47;99154.63;;;9.33;55.56
28267;BME280;15525;45.568;5.448;2023-02-19T05:21:13;99139.66;;;9.20;55.75
28267;BME280;15525;45.568;5.448;2023-02-19T05:23:39;99167.03;;;9.27;55.45
28267;BME280;15525;45.568;5.448;2023-02-19T05:26:11;99169.25;;;9.30;56.37
28267;BME280;15525;45.568;5.448;2023-02-19T05:28:37;99173.56;;;9.31;55.72
28267;BME280;15525;45.568;5.448;2023-02-19T05:31:06;99177.16;;;9.37;55.82
28267;BME280;15525;45.568;5.448;2023-02-19T05:33:33;99179.59;;;9.50;55.26
28267;BME280;15525;45.568;5.448;2023-02-19T05:36:04;99174.50;;;9.37;56.31
28267;BME280;15525;45.568;5.448;2023-02-19T05:38:30;99171.00;;;9.36;55.39
28267;BME280;15525;45.568;5.448;2023-02-19T05:40:55;99166.25;;;9.38;55.99
28267;BME280;15525;45.568;5.448;2023-02-19T05:43:30;99138.84;;;9.20;55.81
28267;BME280;15525;45.568;5.448;2023-02-19T05:45:57;99173.78;;;9.41;55.59
28267;BME280;15525;45.568;5.448;2023-02-19T05:48:22;99158.69;;;9.35;56.01
28267;BME280;15525;45.568;5.448;2023-02-19T05:50:48;99150.91;;;9.34;55.76
28267;BME280;15525;45.568;5.448;2023-02-19T05:53:13;99149.06;;;9.23;55.85
28267;BME280;15525;45.568;5.448;2023-02-19T05:55:39;99153.56;;;9.34;56.16
28267;BME280;15525;45.568;5.448;2023-02-19T05:58:04;99140.69;;;9.31;56.12
28267;BME280;15525;45.568;5.448;2023-02-19T06:00:32;99158.56;;;9.42;55.92
28267;BME280;15525;45.568;5.448;2023-02-19T06:02:57;99148.34;;;9.39;55.38
28267;BME280;15525;45.568;5.448;2023-02-19T06:05:23;99125.59;;;9.13;56.26
28267;BME280;15525;45.568;5.448;2023-02-19T06:07:48;99115.97;;;9.01;56.65
28267;BME280;15525;45.568;5.448;2023-02-19T06:10:17;99127.22;;;9.14;56.26
28267;BME280;15525;45.568;5.448;2023-02-19T06:12:43;99140.22;;;9.34;55.79
28267;BME280;15525;45.568;5.448;2023-02-19T06:15:08;99116.19;;;9.22;55.90
28267;BME280;15525;45.568;5.448;2023-02-19T06:17:33;99102.84;;;9.11;55.75
28267;BME280;15525;45.568;5.448;2023-02-19T06:19:59;99124.22;;;9.11;55.67
28267;BME280;15525;45.568;5.448;2023-02-19T06:22:25;99089.72;;;8.86;56.01
28267;BME280;15525;45.568;5.448;2023-02-19T06:24:51;99106.78;;;8.97;56.28
28267;BME280;15525;45.568;5.448;2023-02-19T06:27:16;99128.16;;;8.97;56.13
28267;BME280;15525;45.568;5.448;2023-02-19T06:29:42;99103.44;;;8.90;56.58
28267;BME280;15525;45.568;5.448;2023-02-19T06:32:07;99122.13;;;8.90;56.90
28267;BME280;15525;45.568;5.448;2023-02-19T06:34:33;99087.88;;;8.75;56.86
28267;BME280;15525;45.568;5.448;2023-02-19T06:36:59;99077.66;;;8.72;56.64
28267;BME280;15525;45.568;5.448;2023-02-19T06:39:26;99091.38;;;8.87;56.64
28267;BME280;15525;45.568;5.448;2023-02-19T06:41:55;99086.25;;;8.86;56.90
28267;BME280;15525;45.568;5.448;2023-02-19T06:44:21;99076.25;;;8.81;56.59
28267;BME280;15525;45.568;5.448;2023-02-19T06:46:46;99103.06;;;8.98;56.08
28267;BME280;15525;45.568;5.448;2023-02-19T06:49:12;99084.28;;;8.93;55.98
28267;BME280;15525;45.568;5.448;2023-02-19T06:51:37;99095.97;;;8.57;57.20
28267;BME280;15525;45.568;5.448;2023-02-19T06:54:03;99118.06;;;8.64;56.99
28267;BME280;15525;45.568;5.448;2023-02-19T06:56:36;99115.50;;;8.81;57.19
28267;BME280;15525;45.568;5.448;2023-02-19T06:59:09;99120.47;;;8.89;56.77
28267;BME280;15525;45.568;5.448;2023-02-19T07:01:36;99096.44;;;8.77;56.13
28267;BME280;15525;45.568;5.448;2023-02-19T07:04:02;99127.31;;;8.85;56.39
28267;BME280;15525;45.568;5.448;2023-02-19T07:06:29;99127.69;;;8.77;56.64
28267;BME280;15525;45.568;5.448;2023-02-19T07:08:56;99125.38;;;8.80;56.66
28267;BME280;15525;45.568;5.448;2023-02-19T07:11:22;99144.41;;;8.95;56.79
28267;BME280;15525;45.568;5.448;2023-02-19T07:13:56;99149.84;;;9.00;56.82
28267;BME280;15525;45.568;5.448;2023-02-19T07:16:22;99142.09;;;9.10;55.98
28267;BME280;15525;45.568;5.448;2023-02-19T07:18:47;99148.47;;;9.09;55.55
28267;BME280;15525;45.568;5.448;2023-02-19T07:21:14;99184.97;;;9.27;56.17
28267;BME280;15525;45.568;5.448;2023-02-19T07:23:40;99189.81;;;9.30;56.32
28267;BME280;15525;45.568;5.448;2023-02-19T07:26:15;99186.69;;;9.44;56.34
28267;BME280;15525;45.568;5.448;2023-02-19T07:28:42;99189.44;;;9.61;55.81
28267;BME280;15525;45.568;5.448;2023-02-19T07:31:08;99186.78;;;9.38;56.38
28267;BME280;15525;45.568;5.448;2023-02-19T07:33:34;99188.06;;;9.47;55.82
28267;BME280;15525;45.568;5.448;2023-02-19T07:35:59;99204.31;;;9.57;55.89
28267;BME280;15525;45.568;5.448;2023-02-19T07:38:25;99199.91;;;9.74;55.43
28267;BME280;15525;45.568;5.448;2023-02-19T07:40:56;99219.53;;;9.91;56.35
28267;BME280;15525;45.568;5.448;2023-02-19T07:43:23;99206.03;;;10.09;55.77
28267;BME280;15525;45.568;5.448;2023-02-19T07:45:49;99214.72;;;10.16;55.70
28267;BME280;15525;45.568;5.448;2023-02-19T07:48:15;99200.53;;;10.15;55.91
28267;BME280;15525;45.568;5.448;2023-02-19T07:50:40;99147.78;;;9.88;56.40
28267;BME280;15525;45.568;5.448;2023-02-19T07:53:06;99211.94;;;10.39;55.74
28267;BME280;15525;45.568;5.448;2023-02-19T07:55:32;99218.06;;;10.51;56.29
28267;BME280;15525;45.568;5.448;2023-02-19T07:57:58;99199.66;;;10.54;56.48
28267;BME280;15525;45.568;5.448;2023-02-19T08:00:25;99206.09;;;10.70;55.76
28267;BME280;15525;45.568;5.448;2023-02-19T08:02:51;99204.44;;;10.80;56.19
28267;BME280;15525;45.568;5.448;2023-02-19T08:05:26;99205.31;;;10.86;56.12
28267;BME280;15525;45.568;5.448;2023-02-19T08:07:52;99182.91;;;10.75;56.74
28267;BME280;15525;45.568;5.448;2023-02-19T08:10:17;99215.72;;;10.99;56.59
28267;BME280;15525;45.568;5.448;2023-02-19T08:13:01;99224.50;;;11.27;58.82
28267;BME280;15525;45.568;5.448;2023-02-19T08:15:46;99204.81;;;11.22;56.78
28267;BME280;15525;45.568;5.448;2023-02-19T08:18:12;99214.59;;;11.28;56.48
28267;BME280;15525;45.568;5.448;2023-02-19T08:20:38;99230.06;;;11.42;56.65
28267;BME280;15525;45.568;5.448;2023-02-19T08:23:04;99232.34;;;11.50;56.26
28267;BME280;15525;45.568;5.448;2023-02-19T08:25:30;99222.22;;;11.52;56.94
28267;BME280;15525;45.568;5.448;2023-02-19T08:27:55;99205.28;;;11.52;56.97
28267;BME280;15525;45.568;5.448;2023-02-19T08:30:21;99234.88;;;11.73;56.76
28267;BME280;15525;45.568;5.448;2023-02-19T08:32:47;99242.16;;;11.95;56.42
28267;BME280;15525;45.568;5.448;2023-02-19T08:35:12;99242.81;;;12.07;56.76
28267;BME280;15525;45.568;5.448;2023-02-19T08:37:37;99241.09;;;12.17;56.54
28267;BME280;15525;45.568;5.448;2023-02-19T08:40:03;99244.84;;;12.16;56.60
28267;BME280;15525;45.568;5.448;2023-02-19T08:42:29;99273.34;;;12.22;56.70
28267;BME280;15525;45.568;5.448;2023-02-19T08:44:54;99256.75;;;12.25;57.23
28267;BME280;15525;45.568;5.448;2023-02-19T08:47:20;99257.06;;;12.29;56.80
28267;BME280;15525;45.568;5.448;2023-02-19T08:49:45;99264.94;;;12.35;57.11
28267;BME280;15525;45.568;5.448;2023-02-19T08:52:11;99259.63;;;12.40;57.36
28267;BME280;15525;45.568;5.448;2023-02-19T08:54:36;99251.50;;;12.35;57.35
28267;BME280;15525;45.568;5.448;2023-02-19T08:57:02;99248.94;;;12.45;57.01
28267;BME280;15525;45.568;5.448;2023-02-19T08:59:29;99275.06;;;12.50;57.50
28267;BME280;15525;45.568;5.448;2023-02-19T09:01:55;99252.47;;;12.24;58.09
28267;BME280;15525;45.568;5.448;2023-02-19T09:04:20;99275.41;;;12.58;57.90
28267;BME280;15525;45.568;5.448;2023-02-19T09:06:45;99273.41;;;12.70;57.65
28267;BME280;15525;45.568;5.448;2023-02-19T09:09:11;99262.66;;;12.70;57.47
28267;BME280;15525;45.568;5.448;2023-02-19T09:11:40;99270.88;;;12.85;57.50
28267;BME280;15525;45.568;5.448;2023-02-19T09:14:05;99229.16;;;12.78;57.22
28267;BME280;15525;45.568;5.448;2023-02-19T09:16:32;99233.16;;;12.75;57.22
28267;BME280;15525;45.568;5.448;2023-02-19T09:18:58;99251.69;;;12.98;56.98
28267;BME280;15525;45.568;5.448;2023-02-19T09:21:24;99240.03;;;12.93;57.03
28267;BME280;15525;45.568;5.448;2023-02-19T09:23:49;99254.09;;;13.26;57.08
28267;BME280;15525;45.568;5.448;2023-02-19T09:26:14;99234.16;;;13.22;56.97
28267;BME280;15525;45.568;5.448;2023-02-19T09:28:40;99268.78;;;13.50;56.80
28267;BME280;15525;45.568;5.448;2023-02-19T09:31:15;99265.72;;;13.68;57.30
28267;BME280;15525;45.568;5.448;2023-02-19T09:33:45;99261.66;;;13.66;56.96
28267;BME280;15525;45.568;5.448;2023-02-19T09:36:12;99259.66;;;13.88;56.50
28267;BME280;15525;45.568;5.448;2023-02-19T09:38:37;99247.59;;;14.00;56.33
28267;BME280;15525;45.568;5.448;2023-02-19T09:41:11;99257.47;;;14.26;56.44
28267;BME280;15525;45.568;5.448;2023-02-19T09:43:38;99255.44;;;14.07;56.39
28267;BME280;15525;45.568;5.448;2023-02-19T09:48:52;99245.38;;;14.39;56.18
28267;BME280;15525;45.568;5.448;2023-02-19T09:51:21;99230.13;;;14.69;55.41
28267;BME280;15525;45.568;5.448;2023-02-19T09:53:50;99225.81;;;14.83;55.92
28267;BME280;15525;45.568;5.448;2023-02-19T09:56:16;99183.25;;;14.80;54.99
28267;BME280;15525;45.568;5.448;2023-02-19T09:58:53;99238.84;;;15.41;55.04
28267;BME280;15525;45.568;5.448;2023-02-19T10:01:20;99236.38;;;15.80;53.88
28267;BME280;15525;45.568;5.448;2023-02-19T10:03:48;99222.03;;;15.84;53.25
28267;BME280;15525;45.568;5.448;2023-02-19T10:06:18;99239.31;;;15.93;54.29
28267;BME280;15525;45.568;5.448;2023-02-19T10:08:46;99246.72;;;16.46;53.10
28267;BME280;15525;45.568;5.448;2023-02-19T10:11:13;99249.75;;;16.83;53.00
28267;BME280;15525;45.568;5.448;2023-02-19T10:14:05;99243.91;;;17.10;51.37
28267;BME280;15525;45.568;5.448;2023-02-19T10:16:38;99241.78;;;17.07;51.74
28267;BME280;15525;45.568;5.448;2023-02-19T10:19:08;99231.28;;;17.00;50.73
28267;BME280;15525;45.568;5.448;2023-02-19T10:21:35;99236.91;;;16.60;51.09
28267;BME280;15525;45.568;5.448;2023-02-19T10:24:03;99225.94;;;16.90;50.35
28267;BME280;15525;45.568;5.448;2023-02-19T10:26:30;99246.91;;;17.03;51.04
28267;BME280;15525;45.568;5.448;2023-02-19T10:29:02;99233.81;;;16.82;50.99
28267;BME280;15525;45.568;5.448;2023-02-19T10:31:32;99246.41;;;17.01;50.39
28267;BME280;15525;45.568;5.448;2023-02-19T10:33:59;99243.63;;;17.11;50.07
28267;BME280;15525;45.568;5.448;2023-02-19T10:36:35;99241.03;;;16.96;50.08
28267;BME280;15525;45.568;5.448;2023-02-19T10:39:23;99238.06;;;16.98;49.95
28267;BME280;15525;45.568;5.448;2023-02-19T10:41:52;99246.22;;;17.26;50.15
28267;BME280;15525;45.568;5.448;2023-02-19T10:44:23;99229.00;;;17.12;49.35
28267;BME280;15525;45.568;5.448;2023-02-19T10:46:52;99244.50;;;16.58;49.57
28267;BME280;15525;45.568;5.448;2023-02-19T10:49:32;99240.78;;;16.93;49.50
28267;BME280;15525;45.568;5.448;2023-02-19T10:52:09;99246.66;;;17.38;49.00
28267;BME280;15525;45.568;5.448;2023-02-19T10:54:41;99232.63;;;17.65;48.48
28267;BME280;15525;45.568;5.448;2023-02-19T11:02:42;99247.38;;;17.15;49.10
28267;BME280;15525;45.568;5.448;2023-02-19T11:07:57;99252.16;;;16.90;49.00
28267;BME280;15525;45.568;5.448;2023-02-19T11:10:39;99256.25;;;17.26;48.26
28267;BME280;15525;45.568;5.448;2023-02-19T11:13:13;99258.34;;;16.95;48.72
28267;BME280;15525;45.568;5.448;2023-02-19T11:15:39;99247.66;;;17.14;48.29
28267;BME280;15525;45.568;5.448;2023-02-19T11:20:50;99255.34;;;17.02;48.75
28267;BME280;15525;45.568;5.448;2023-02-19T11:23:23;99237.22;;;16.97;48.67
28267;BME280;15525;45.568;5.448;2023-02-19T11:25:50;99244.09;;;16.85;48.82
28267;BME280;15525;45.568;5.448;2023-02-19T11:31:12;99237.53;;;17.29;47.56
28267;BME280;15525;45.568;5.448;2023-02-19T11:33:54;99245.56;;;17.44;47.29
28267;BME280;15525;45.568;5.448;2023-02-19T11:36:25;99249.53;;;17.18;48.22
28267;BME280;15525;45.568;5.448;2023-02-19T11:38:52;99223.00;;;17.20;48.08
28267;BME280;15525;45.568;5.448;2023-02-19T11:41:47;99235.25;;;17.46;47.66
28267;BME280;15525;45.568;5.448;2023-02-19T11:47:44;99248.97;;;17.21;48.24
28267;BME280;15525;45.568;5.448;2023-02-19T11:50:30;99232.59;;;17.41;48.13
28267;BME280;15525;45.568;5.448;2023-02-19T11:53:25;99240.69;;;17.08;48.63
28267;BME280;15525;45.568;5.448;2023-02-19T12:37:40;99184.97;;;17.35;49.02
28267;BME280;15525;45.568;5.448;2023-02-19T12:40:36;99186.94;;;17.58;48.60
28267;BME280;15525;45.568;5.448;2023-02-19T12:50:34;99186.53;;;17.46;48.54
28267;BME280;15525;45.568;5.448;2023-02-19T12:55:53;99191.00;;;17.61;47.93
28267;BME280;15525;45.568;5.448;2023-02-19T12:58:36;99178.84;;;17.25;48.74
28267;BME280;15525;45.568;5.448;2023-02-19T13:01:04;99181.94;;;17.13;49.43
28267;BME280;15525;45.568;5.448;2023-02-19T13:07:05;99187.53;;;16.88;49.81
28267;BME280;15525;45.568;5.448;2023-02-19T13:09:05;99153.69;;;16.91;49.96
28267;BME280;15525;45.568;5.448;2023-02-19T13:11:43;99159.22;;;17.38;48.77
28267;BME280;15525;45.568;5.448;2023-02-19T13:14:28;99168.34;;;17.75;48.20
28267;BME280;15525;45.568;5.448;2023-02-19T13:16:59;99162.13;;;17.51;48.75
28267;BME280;15525;45.568;5.448;2023-02-19T13:19:28;99154.28;;;16.83;50.22
28267;BME280;15525;45.568;5.448;2023-02-19T13:22:04;99158.22;;;17.00;49.99
28267;BME280;15525;45.568;5.448;2023-02-19T13:24:55;99155.66;;;17.14;49.35
28267;BME280;15525;45.568;5.448;2023-02-19T13:30:37;99159.63;;;16.93;50.20
28267;BME280;15525;45.568;5.448;2023-02-19T13:33:24;99165.97;;;16.30;51.83
28267;BME280;15525;45.568;5.448;2023-02-19T13:36:02;99166.25;;;16.23;52.16
28267;BME280;15525;45.568;5.448;2023-02-19T13:38:32;99156.06;;;16.64;50.78
28267;BME280;15525;45.568;5.448;2023-02-19T13:40:59;99167.31;;;16.32;51.31
28267;BME280;15525;45.568;5.448;2023-02-19T13:43:27;99156.06;;;16.10;52.00
28267;BME280;15525;45.568;5.448;2023-02-19T13:46:09;99176.94;;;16.58;51.86
28267;BME280;15525;45.568;5.448;2023-02-19T13:48:37;99189.00;;;16.71;51.34
28267;BME280;15525;45.568;5.448;2023-02-19T14:17:42;99151.19;;;16.17;53.00
28267;BME280;15525;45.568;5.448;2023-02-19T14:27:52;99152.09;;;15.93;52.97
28267;BME280;15525;45.568;5.448;2023-02-19T14:30:20;99139.09;;;15.95;52.82
28267;BME280;15525;45.568;5.448;2023-02-19T14:32:46;99138.78;;;16.06;52.53
28267;BME280;15525;45.568;5.448;2023-02-19T14:35:20;99144.41;;;16.20;52.81
28267;BME280;15525;45.568;5.448;2023-02-19T14:37:47;99126.28;;;16.20;51.88
28267;BME280;15525;45.568;5.448;2023-02-19T14:40:20;99135.50;;;16.14;52.46
28267;BME280;15525;45.568;5.448;2023-02-19T14:42:48;99118.91;;;15.82;53.24
28267;BME280;15525;45.568;5.448;2023-02-19T14:45:17;99129.16;;;15.85;52.93
28267;BME280;15525;45.568;5.448;2023-02-19T14:47:45;99132.41;;;15.82;53.21
28267;BME280;15525;45.568;5.448;2023-02-19T14:50:15;99146.41;;;15.94;52.96
28267;BME280;15525;45.568;5.448;2023-02-19T14:52:49;99144.13;;;16.16;52.36
28267;BME280;15525;45.568;5.448;2023-02-19T14:55:26;99150.13;;;16.13;52.24
28267;BME280;15525;45.568;5.448;2023-02-19T14:57:54;99129.25;;;16.19;51.84
28267;BME280;15525;45.568;5.448;2023-02-19T15:02:48;99141.75;;;16.05;52.10
28267;BME280;15525;45.568;5.448;2023-02-19T15:05:20;99139.25;;;16.23;51.73
28267;BME280;15525;45.568;5.448;2023-02-19T15:07:47;99154.81;;;16.46;51.15
28267;BME280;15525;45.568;5.448;2023-02-19T15:10:14;99149.03;;;16.09;51.92
28267;BME280;15525;45.568;5.448;2023-02-19T15:12:46;99152.03;;;16.03;51.60
28267;BME280;15525;45.568;5.448;2023-02-19T15:15:30;99142.41;;;16.45;51.04
28267;BME280;15525;45.568;5.448;2023-02-19T15:17:58;99150.72;;;16.54;50.78
28267;BME280;15525;45.568;5.448;2023-02-19T15:20:27;99145.06;;;16.50;50.47
28267;BME280;15525;45.568;5.448;2023-02-19T15:22:53;99149.66;;;16.50;50.25
28267;BME280;15525;45.568;5.448;2023-02-19T15:25:22;99130.09;;;16.14;51.24
28267;BME280;15525;45.568;5.448;2023-02-19T15:27:49;99147.38;;;16.18;51.58
28267;BME280;15525;45.568;5.448;2023-02-19T15:32:53;99168.53;;;16.01;51.69
28267;BME280;15525;45.568;5.448;2023-02-19T15:35:19;99145.88;;;15.92;51.33
28267;BME280;15525;45.568;5.448;2023-02-19T15:37:47;99145.34;;;15.90;51.47
28267;BME280;15525;45.568;5.448;2023-02-19T15:40:13;99151.81;;;15.94;51.49
28267;BME280;15525;45.568;5.448;2023-02-19T15:42:43;99152.22;;;16.21;50.90
28267;BME280;15525;45.568;5.448;2023-02-19T15:45:19;99150.81;;;16.34;50.52
28267;BME280;15525;45.568;5.448;2023-02-19T15:48:14;99150.06;;;16.23;50.41